sensor_id;sensor_type;location;lat;lon;timestamp;P1;durP1;ratioP1;P2;durP2;ratioP2
15317;SDS011;7759;52.528;13.346;2023-05-10T00:01:58;4.78;;;3.03;;
15317;SDS011;7759;52.528;13.346;2023-05-10T00:04:24;4.15;;;2.63;;
15317;SDS011;7759;52.528;13.346;2023-05-10T00:06:52;2.70;;;2.30;;
15317;SDS011;7759;52.528;13.346;2023-05-10T00:09:18;5.27;;;2.90;;
15317;SDS011;7759;52.528;13.346;2023-05-10T00:11:44;4.43;;;2.77;;
15317;SDS011;7759;52.528;13.346;2023-05-10T00:14:11;4.03;;;2.97;;
15317;SDS011;7759;52.528;13.346;2023-05-10T00:16:38;5.40;;;3.17;;
15317;SDS011;7759;52.528;13.346;2023-05-10T00:19:04;5.07;;;3.27;;
15317;SDS011;7759;52.528;13.346;2023-05-10T00:21:30;6.03;;;3.37;;
15317;SDS011;7759;52.528;13.346;2023-05-10T00:23:57;5.03;;;2.70;;
15317;SDS011;7759;52.528;13.346;2023-05-10T00:26:23;4.90;;;3.70;;
15317;SDS011;7759;52.528;13.346;2023-05-10T00:28:49;8.43;;;3.30;;
15317;SDS011;7759;52.528;13.346;2023-05-10T00:31:15;4.17;;;2.93;;
15317;SDS011;7759;52.528;13.346;2023-05-10T00:33:41;4.33;;;3.33;;
15317;SDS011;7759;52.528;13.346;2023-05-10T00:36:07;5.17;;;3.03;;
15317;SDS011;7759;52.528;13.346;2023-05-10T00:38:33;4.27;;;2.90;;
15317;SDS011;7759;52.528;13.346;2023-05-10T00:40:59;5.23;;;3.53;;
15317;SDS011;7759;52.528;13.346;2023-05-10T00:43:27;3.67;;;3.00;;
15317;SDS011;7759;52.528;13.346;2023-05-10T00:45:53;4.80;;;3.30;;
15317;SDS011;7759;52.528;13.346;2023-05-10T00:48:19;3.90;;;3.00;;
15317;SDS011;7759;52.528;13.346;2023-05-10T00:50:46;4.87;;;3.47;;
15317;SDS011;7759;52.528;13.346;2023-05-10T00:53:12;4.83;;;3.50;;
15317;SDS011;7759;52.528;13.346;2023-05-10T00:55:39;4.93;;;3.23;;
15317;SDS011;7759;52.528;13.346;2023-05-10T00:58:06;4.87;;;3.37;;
15317;SDS011;7759;52.528;13.346;2023-05-10T01:00:33;4.43;;;3.00;;
15317;SDS011;7759;52.528;13.346;2023-05-10T01:02:59;4.90;;;3.37;;
15317;SDS011;7759;52.528;13.346;2023-05-10T01:05:26;3.83;;;3.20;;
15317;SDS011;7759;52.528;13.346;2023-05-10T01:07:52;7.03;;;3.27;;
15317;SDS011;7759;52.528;13.346;2023-05-10T01:10:18;5.13;;;3.37;;
15317;SDS011;7759;52.528;13.346;2023-05-10T01:12:46;5.13;;;3.70;;
15317;SDS011;7759;52.528;13.346;2023-05-10T01:15:12;4.60;;;3.57;;
15317;SDS011;7759;52.528;13.346;2023-05-10T01:17:40;5.50;;;3.73;;
15317;SDS011;7759;52.528;13.346;2023-05-10T01:20:09;5.77;;;3.60;;
15317;SDS011;7759;52.528;13.346;2023-05-10T01:22:40;6.57;;;3.30;;
15317;SDS011;7759;52.528;13.346;2023-05-10T01:32:55;6.93;;;3.40;;
15317;SDS011;7759;52.528;13.346;2023-05-10T01:35:26;4.00;;;2.77;;
15317;SDS011;7759;52.528;13.346;2023-05-10T01:37:58;4.57;;;3.00;;
15317;SDS011;7759;52.528;13.346;2023-05-10T01:40:39;6.23;;;3.23;;
15317;SDS011;7759;52.528;13.346;2023-05-10T01:43:08;5.03;;;3.47;;
15317;SDS011;7759;52.528;13.346;2023-05-10T01:45:37;7.00;;;3.47;;
15317;SDS011;7759;52.528;13.346;2023-05-10T01:48:08;5.00;;;3.40;;
15317;SDS011;7759;52.528;13.346;2023-05-10T01:50:35;6.67;;;3.60;;
15317;SDS011;7759;52.528;13.346;2023-05-10T01:53:02;5.30;;;3.10;;
15317;SDS011;7759;52.528;13.346;2023-05-10T01:55:29;4.53;;;3.20;;
15317;SDS011;7759;52.528;13.346;2023-05-10T01:58:18;4.43;;;3.37;;
15317;SDS011;7759;52.528;13.346;2023-05-10T02:00:42;5.53;;;3.53;;
15317;SDS011;7759;52.528;13.346;2023-05-10T02:03:09;4.37;;;3.17;;
15317;SDS011;7759;52.528;13.346;2023-05-10T02:05:36;4.27;;;3.03;;
15317;SDS011;7759;52.528;13.346;2023-05-10T02:08:05;5.93;;;3.30;;
15317;SDS011;7759;52.528;13.346;2023-05-10T02:10:32;4.40;;;3.27;;
15317;SDS011;7759;52.528;13.346;2023-05-10T02:12:58;3.47;;;2.87;;
15317;SDS011;7759;52.528;13.346;2023-05-10T02:15:24;4.43;;;3.17;;
15317;SDS011;7759;52.528;13.346;2023-05-10T02:17:55;5.97;;;3.17;;
15317;SDS011;7759;52.528;13.346;2023-05-10T02:20:22;4.40;;;3.10;;
15317;SDS011;7759;52.528;13.346;2023-05-10T02:22:49;3.93;;;3.00;;
15317;SDS011;7759;52.528;13.346;2023-05-10T02:25:17;4.47;;;3.13;;
15317;SDS011;7759;52.528;13.346;2023-05-10T02:27:43;4.03;;;3.30;;
15317;SDS011;7759;52.528;13.346;2023-05-10T02:30:10;5.17;;;3.03;;
15317;SDS011;7759;52.528;13.346;2023-05-10T02:32:36;6.47;;;3.10;;
15317;SDS011;7759;52.528;13.346;2023-05-10T02:35:02;4.23;;;2.90;;
15317;SDS011;7759;52.528;13.346;2023-05-10T02:37:30;3.77;;;2.93;;
15317;SDS011;7759;52.528;13.346;2023-05-10T02:39:57;4.67;;;3.30;;
15317;SDS011;7759;52.528;13.346;2023-05-10T02:42:25;6.07;;;3.03;;
15317;SDS011;7759;52.528;13.346;2023-05-10T02:44:54;4.00;;;2.97;;
15317;SDS011;7759;52.528;13.346;2023-05-10T02:47:22;4.07;;;2.83;;
15317;SDS011;7759;52.528;13.346;2023-05-10T02:49:48;4.90;;;2.63;;
15317;SDS011;7759;52.528;13.346;2023-05-10T02:52:15;6.37;;;3.33;;
15317;SDS011;7759;52.528;13.346;2023-05-10T02:54:45;4.20;;;3.10;;
15317;SDS011;7759;52.528;13.346;2023-05-10T02:57:15;4.20;;;3.30;;
15317;SDS011;7759;52.528;13.346;2023-05-10T02:59:44;3.77;;;3.00;;
15317;SDS011;7759;52.528;13.346;2023-05-10T03:02:10;5.07;;;2.80;;
15317;SDS011;7759;52.528;13.346;2023-05-10T03:04:38;5.67;;;2.87;;
15317;SDS011;7759;52.528;13.346;2023-05-10T03:07:04;4.30;;;3.37;;
15317;SDS011;7759;52.528;13.346;2023-05-10T03:09:30;4.53;;;3.17;;
15317;SDS011;7759;52.528;13.346;2023-05-10T03:12:04;5.13;;;3.20;;
15317;SDS011;7759;52.528;13.346;2023-05-10T03:17:15;5.03;;;3.40;;
15317;SDS011;7759;52.528;13.346;2023-05-10T03:19:47;4.07;;;3.07;;
15317;SDS011;7759;52.528;13.346;2023-05-10T03:22:17;9.90;;;3.10;;
15317;SDS011;7759;52.528;13.346;2023-05-10T03:24:47;4.53;;;3.13;;
15317;SDS011;7759;52.528;13.346;2023-05-10T03:27:14;6.23;;;3.40;;
15317;SDS011;7759;52.528;13.346;2023-05-10T03:29:41;4.07;;;3.00;;
15317;SDS011;7759;52.528;13.346;2023-05-10T03:32:07;4.20;;;2.80;;
15317;SDS011;7759;52.528;13.346;2023-05-10T03:34:33;6.77;;;3.10;;
15317;SDS011;7759;52.528;13.346;2023-05-10T03:37:01;5.43;;;3.30;;
15317;SDS011;7759;52.528;13.346;2023-05-10T03:39:27;5.37;;;2.80;;
15317;SDS011;7759;52.528;13.346;2023-05-10T03:41:53;5.87;;;3.63;;
15317;SDS011;7759;52.528;13.346;2023-05-10T03:44:19;5.23;;;2.87;;
15317;SDS011;7759;52.528;13.346;2023-05-10T03:46:45;5.63;;;2.80;;
15317;SDS011;7759;52.528;13.346;2023-05-10T03:49:12;3.70;;;3.30;;
15317;SDS011;7759;52.528;13.346;2023-05-10T03:51:39;5.07;;;2.63;;
15317;SDS011;7759;52.528;13.346;2023-05-10T03:54:06;4.53;;;2.93;;
15317;SDS011;7759;52.528;13.346;2023-05-10T03:56:32;4.40;;;2.97;;
15317;SDS011;7759;52.528;13.346;2023-05-10T03:58:58;5.67;;;2.77;;
15317;SDS011;7759;52.528;13.346;2023-05-10T04:01:24;4.53;;;2.60;;
15317;SDS011;7759;52.528;13.346;2023-05-10T04:03:50;3.73;;;2.73;;
15317;SDS011;7759;52.528;13.346;2023-05-10T04:06:18;4.00;;;3.00;;
15317;SDS011;7759;52.528;13.346;2023-05-10T04:08:44;4.57;;;2.83;;
15317;SDS011;7759;52.528;13.346;2023-05-10T04:11:11;4.43;;;2.77;;
15317;SDS011;7759;52.528;13.346;2023-05-10T04:13:38;4.63;;;2.67;;
15317;SDS011;7759;52.528;13.346;2023-05-10T04:16:04;5.03;;;2.93;;
15317;SDS011;7759;52.528;13.346;2023-05-10T04:18:31;6.43;;;2.83;;
15317;SDS011;7759;52.528;13.346;2023-05-10T04:20:57;7.97;;;3.77;;
15317;SDS011;7759;52.528;13.346;2023-05-10T04:23:23;3.57;;;2.73;;
15317;SDS011;7759;52.528;13.346;2023-05-10T04:25:49;5.47;;;2.97;;
15317;SDS011;7759;52.528;13.346;2023-05-10T04:28:15;4.83;;;3.03;;
15317;SDS011;7759;52.528;13.346;2023-05-10T04:30:41;5.97;;;2.97;;
15317;SDS011;7759;52.528;13.346;2023-05-10T04:33:07;5.67;;;3.50;;
15317;SDS011;7759;52.528;13.346;2023-05-10T04:35:34;5.03;;;3.07;;
15317;SDS011;7759;52.528;13.346;2023-05-10T04:38:00;6.57;;;3.13;;
15317;SDS011;7759;52.528;13.346;2023-05-10T04:40:26;4.47;;;3.10;;
15317;SDS011;7759;52.528;13.346;2023-05-10T04:42:52;4.57;;;2.83;;
15317;SDS011;7759;52.528;13.346;2023-05-10T04:45:18;4.43;;;3.40;;
15317;SDS011;7759;52.528;13.346;2023-05-10T04:47:44;5.13;;;3.13;;
15317;SDS011;7759;52.528;13.346;2023-05-10T04:50:10;8.10;;;5.90;;
15317;SDS011;7759;52.528;13.346;2023-05-10T04:52:36;5.53;;;3.03;;
15317;SDS011;7759;52.528;13.346;2023-05-10T04:55:02;4.20;;;3.00;;
15317;SDS011;7759;52.528;13.346;2023-05-10T04:57:29;4.03;;;2.60;;
15317;SDS011;7759;52.528;13.346;2023-05-10T04:59:55;6.77;;;2.93;;
15317;SDS011;7759;52.528;13.346;2023-05-10T05:02:21;3.77;;;3.03;;
15317;SDS011;7759;52.528;13.346;2023-05-10T05:04:48;3.63;;;2.50;;
15317;SDS011;7759;52.528;13.346;2023-05-10T05:07:14;5.40;;;3.03;;
15317;SDS011;7759;52.528;13.346;2023-05-10T05:09:40;5.23;;;2.97;;
15317;SDS011;7759;52.528;13.346;2023-05-10T05:12:06;5.17;;;2.63;;
15317;SDS011;7759;52.528;13.346;2023-05-10T05:14:32;4.63;;;2.97;;
15317;SDS011;7759;52.528;13.346;2023-05-10T05:16:58;4.67;;;2.67;;
15317;SDS011;7759;52.528;13.346;2023-05-10T05:19:24;4.23;;;2.80;;
15317;SDS011;7759;52.528;13.346;2023-05-10T05:21:50;5.33;;;3.00;;
15317;SDS011;7759;52.528;13.346;2023-05-10T05:24:15;5.63;;;2.47;;
15317;SDS011;7759;52.528;13.346;2023-05-10T05:26:41;3.27;;;2.33;;
15317;SDS011;7759;52.528;13.346;2023-05-10T05:29:07;5.93;;;2.60;;
15317;SDS011;7759;52.528;13.346;2023-05-10T05:31:35;3.47;;;2.50;;
15317;SDS011;7759;52.528;13.346;2023-05-10T05:34:01;3.90;;;2.60;;
15317;SDS011;7759;52.528;13.346;2023-05-10T05:36:27;5.90;;;2.87;;
15317;SDS011;7759;52.528;13.346;2023-05-10T05:38:53;3.70;;;2.43;;
15317;SDS011;7759;52.528;13.346;2023-05-10T05:41:19;4.73;;;2.53;;
15317;SDS011;7759;52.528;13.346;2023-05-10T05:43:46;3.90;;;2.53;;
15317;SDS011;7759;52.528;13.346;2023-05-10T05:46:12;4.17;;;2.33;;
15317;SDS011;7759;52.528;13.346;2023-05-10T05:48:38;4.03;;;2.63;;
15317;SDS011;7759;52.528;13.346;2023-05-10T05:51:04;2.70;;;1.87;;
15317;SDS011;7759;52.528;13.346;2023-05-10T05:53:30;3.40;;;2.50;;
15317;SDS011;7759;52.528;13.346;2023-05-10T05:55:57;3.43;;;2.37;;
15317;SDS011;7759;52.528;13.346;2023-05-10T05:58:24;3.47;;;2.40;;
15317;SDS011;7759;52.528;13.346;2023-05-10T06:00:50;4.57;;;2.47;;
15317;SDS011;7759;52.528;13.346;2023-05-10T06:03:17;4.43;;;2.57;;
15317;SDS011;7759;52.528;13.346;2023-05-10T06:05:43;4.63;;;2.33;;
15317;SDS011;7759;52.528;13.346;2023-05-10T06:08:09;5.97;;;2.30;;
15317;SDS011;7759;52.528;13.346;2023-05-10T06:10:36;3.90;;;2.70;;
15317;SDS011;7759;52.528;13.346;2023-05-10T06:13:02;2.93;;;2.20;;
15317;SDS011;7759;52.528;13.346;2023-05-10T06:15:28;5.10;;;2.07;;
15317;SDS011;7759;52.528;13.346;2023-05-10T06:17:54;15.50;;;3.17;;
15317;SDS011;7759;52.528;13.346;2023-05-10T06:20:20;3.83;;;2.30;;
15317;SDS011;7759;52.528;13.346;2023-05-10T06:22:46;4.77;;;2.70;;
15317;SDS011;7759;52.528;13.346;2023-05-10T06:25:12;9.03;;;2.23;;
15317;SDS011;7759;52.528;13.346;2023-05-10T06:27:39;6.33;;;2.40;;
15317;SDS011;7759;52.528;13.346;2023-05-10T06:30:05;3.03;;;2.00;;
15317;SDS011;7759;52.528;13.346;2023-05-10T06:32:33;3.90;;;2.27;;
15317;SDS011;7759;52.528;13.346;2023-05-10T06:35:00;2.77;;;1.80;;
15317;SDS011;7759;52.528;13.346;2023-05-10T06:37:26;4.07;;;1.80;;
15317;SDS011;7759;52.528;13.346;2023-05-10T06:39:52;3.50;;;2.07;;
15317;SDS011;7759;52.528;13.346;2023-05-10T06:42:18;7.63;;;2.20;;
15317;SDS011;7759;52.528;13.346;2023-05-10T06:44:43;3.83;;;2.43;;
15317;SDS011;7759;52.528;13.346;2023-05-10T06:47:11;2.60;;;1.60;;
15317;SDS011;7759;52.528;13.346;2023-05-10T06:49:36;2.30;;;2.00;;
15317;SDS011;7759;52.528;13.346;2023-05-10T06:52:02;1.77;;;1.60;;
15317;SDS011;7759;52.528;13.346;2023-05-10T06:54:29;7.57;;;2.00;;
15317;SDS011;7759;52.528;13.346;2023-05-10T06:56:54;3.20;;;1.83;;
15317;SDS011;7759;52.528;13.346;2023-05-10T06:59:20;5.37;;;2.00;;
15317;SDS011;7759;52.528;13.346;2023-05-10T07:01:47;3.63;;;2.20;;
15317;SDS011;7759;52.528;13.346;2023-05-10T07:04:14;3.37;;;2.00;;
15317;SDS011;7759;52.528;13.346;2023-05-10T07:06:40;6.90;;;3.77;;
15317;SDS011;7759;52.528;13.346;2023-05-10T07:09:07;2.10;;;1.90;;
15317;SDS011;7759;52.528;13.346;2023-05-10T07:11:33;3.00;;;2.10;;
15317;SDS011;7759;52.528;13.346;2023-05-10T07:13:59;3.63;;;2.10;;
15317;SDS011;7759;52.528;13.346;2023-05-10T07:16:25;2.80;;;1.90;;
15317;SDS011;7759;52.528;13.346;2023-05-10T07:18:52;4.65;;;2.38;;
15317;SDS011;7759;52.528;13.346;2023-05-10T07:21:18;4.20;;;1.80;;
15317;SDS011;7759;52.528;13.346;2023-05-10T07:23:44;3.42;;;2.28;;
15317;SDS011;7759;52.528;13.346;2023-05-10T07:26:10;4.60;;;2.05;;
15317;SDS011;7759;52.528;13.346;2023-05-10T07:28:37;5.13;;;2.53;;
15317;SDS011;7759;52.528;13.346;2023-05-10T07:31:04;3.58;;;1.75;;
15317;SDS011;7759;52.528;13.346;2023-05-10T07:33:30;4.00;;;1.60;;
15317;SDS011;7759;52.528;13.346;2023-05-10T07:35:56;3.85;;;1.83;;
15317;SDS011;7759;52.528;13.346;2023-05-10T07:38:22;2.38;;;1.80;;
15317;SDS011;7759;52.528;13.346;2023-05-10T07:40:48;2.45;;;1.73;;
15317;SDS011;7759;52.528;13.346;2023-05-10T07:43:14;2.28;;;1.70;;
15317;SDS011;7759;52.528;13.346;2023-05-10T07:45:40;2.80;;;1.92;;
15317;SDS011;7759;52.528;13.346;2023-05-10T07:48:09;4.07;;;2.70;;
15317;SDS011;7759;52.528;13.346;2023-05-10T07:50:35;2.50;;;1.83;;
15317;SDS011;7759;52.528;13.346;2023-05-10T07:53:01;4.18;;;1.90;;
15317;SDS011;7759;52.528;13.346;2023-05-10T07:55:27;2.15;;;1.90;;
15317;SDS011;7759;52.528;13.346;2023-05-10T07:57:53;2.75;;;2.08;;
15317;SDS011;7759;52.528;13.346;2023-05-10T08:00:19;4.18;;;1.92;;
15317;SDS011;7759;52.528;13.346;2023-05-10T08:02:45;3.78;;;2.10;;
15317;SDS011;7759;52.528;13.346;2023-05-10T08:05:12;3.45;;;1.73;;
15317;SDS011;7759;52.528;13.346;2023-05-10T08:07:38;3.25;;;1.58;;
15317;SDS011;7759;52.528;13.346;2023-05-10T08:10:04;2.38;;;1.77;;
15317;SDS011;7759;52.528;13.346;2023-05-10T08:12:31;5.50;;;2.08;;
15317;SDS011;7759;52.528;13.346;2023-05-10T08:14:58;5.32;;;2.40;;
15317;SDS011;7759;52.528;13.346;2023-05-10T08:17:24;2.55;;;1.92;;
15317;SDS011;7759;52.528;13.346;2023-05-10T08:19:50;4.13;;;2.38;;
15317;SDS011;7759;52.528;13.346;2023-05-10T08:22:17;1.92;;;1.73;;
15317;SDS011;7759;52.528;13.346;2023-05-10T08:24:49;6.80;;;1.98;;
15317;SDS011;7759;52.528;13.346;2023-05-10T08:27:15;1.88;;;1.52;;
15317;SDS011;7759;52.528;13.346;2023-05-10T08:29:42;3.92;;;1.73;;
15317;SDS011;7759;52.528;13.346;2023-05-10T08:32:08;1.73;;;1.55;;
15317;SDS011;7759;52.528;13.346;2023-05-10T08:34:34;3.92;;;1.83;;
15317;SDS011;7759;52.528;13.346;2023-05-10T08:37:07;4.32;;;2.45;;
15317;SDS011;7759;52.528;13.346;2023-05-10T08:39:36;3.65;;;2.30;;
15317;SDS011;7759;52.528;13.346;2023-05-10T08:42:03;2.10;;;1.55;;
15317;SDS011;7759;52.528;13.346;2023-05-10T08:44:31;5.40;;;1.85;;
15317;SDS011;7759;52.528;13.346;2023-05-10T08:46:57;2.33;;;1.77;;
15317;SDS011;7759;52.528;13.346;2023-05-10T08:49:25;6.18;;;2.17;;
15317;SDS011;7759;52.528;13.346;2023-05-10T08:51:54;2.65;;;1.88;;
15317;SDS011;7759;52.528;13.346;2023-05-10T08:54:21;2.90;;;1.70;;
15317;SDS011;7759;52.528;13.346;2023-05-10T08:56:47;5.10;;;3.42;;
15317;SDS011;7759;52.528;13.346;2023-05-10T08:59:14;1.67;;;1.40;;
15317;SDS011;7759;52.528;13.346;2023-05-10T09:01:40;4.72;;;1.63;;
15317;SDS011;7759;52.528;13.346;2023-05-10T09:04:09;2.60;;;1.85;;
15317;SDS011;7759;52.528;13.346;2023-05-10T09:06:34;3.47;;;2.05;;
15317;SDS011;7759;52.528;13.346;2023-05-10T09:09:05;4.07;;;1.83;;
15317;SDS011;7759;52.528;13.346;2023-05-10T09:11:31;2.55;;;1.60;;
15317;SDS011;7759;52.528;13.346;2023-05-10T09:13:58;2.10;;;1.88;;
15317;SDS011;7759;52.528;13.346;2023-05-10T09:16:25;1.63;;;1.52;;
15317;SDS011;7759;52.528;13.346;2023-05-10T09:19:11;4.22;;;1.70;;
15317;SDS011;7759;52.528;13.346;2023-05-10T09:21:37;2.67;;;2.13;;
15317;SDS011;7759;52.528;13.346;2023-05-10T09:24:04;3.08;;;1.92;;
15317;SDS011;7759;52.528;13.346;2023-05-10T09:26:30;6.30;;;1.63;;
15317;SDS011;7759;52.528;13.346;2023-05-10T09:28:57;4.30;;;2.05;;
15317;SDS011;7759;52.528;13.346;2023-05-10T09:31:24;4.18;;;2.22;;
15317;SDS011;7759;52.528;13.346;2023-05-10T09:33:50;2.13;;;1.50;;
15317;SDS011;7759;52.528;13.346;2023-05-10T09:36:16;2.13;;;1.70;;
15317;SDS011;7759;52.528;13.346;2023-05-10T09:38:54;3.70;;;1.85;;
15317;SDS011;7759;52.528;13.346;2023-05-10T09:41:21;3.13;;;1.65;;
15317;SDS011;7759;52.528;13.346;2023-05-10T09:43:47;2.15;;;1.45;;
15317;SDS011;7759;52.528;13.346;2023-05-10T09:46:15;4.43;;;1.60;;
15317;SDS011;7759;52.528;13.346;2023-05-10T09:48:42;4.07;;;2.03;;
15317;SDS011;7759;52.528;13.346;2023-05-10T09:51:09;6.47;;;1.90;;
15317;SDS011;7759;52.528;13.346;2023-05-10T09:53:35;1.70;;;1.60;;
15317;SDS011;7759;52.528;13.346;2023-05-10T09:56:04;2.35;;;1.80;;
15317;SDS011;7759;52.528;13.346;2023-05-10T09:58:30;2.78;;;2.00;;
15317;SDS011;7759;52.528;13.346;2023-05-10T10:00:56;4.00;;;3.42;;
15317;SDS011;7759;52.528;13.346;2023-05-10T10:03:23;2.13;;;1.63;;
15317;SDS011;7759;52.528;13.346;2023-05-10T10:05:49;3.85;;;1.95;;
15317;SDS011;7759;52.528;13.346;2023-05-10T10:08:16;2.67;;;1.85;;
15317;SDS011;7759;52.528;13.346;2023-05-10T10:10:43;2.33;;;1.88;;
15317;SDS011;7759;52.528;13.346;2023-05-10T10:13:12;2.13;;;1.83;;
15317;SDS011;7759;52.528;13.346;2023-05-10T10:15:39;2.28;;;1.90;;
15317;SDS011;7759;52.528;13.346;2023-05-10T10:18:05;10.45;;;5.90;;
15317;SDS011;7759;52.528;13.346;2023-05-10T10:20:31;3.03;;;2.10;;
15317;SDS011;7759;52.528;13.346;2023-05-10T10:22:57;3.20;;;2.03;;
15317;SDS011;7759;52.528;13.346;2023-05-10T10:25:25;3.03;;;2.30;;
15317;SDS011;7759;52.528;13.346;2023-05-10T10:30:34;3.97;;;2.47;;
15317;SDS011;7759;52.528;13.346;2023-05-10T10:35:46;3.22;;;1.95;;
15317;SDS011;7759;52.528;13.346;2023-05-10T10:38:14;3.60;;;1.77;;
15317;SDS011;7759;52.528;13.346;2023-05-10T10:40:40;5.35;;;1.90;;
15317;SDS011;7759;52.528;13.346;2023-05-10T10:43:22;1.92;;;1.70;;
15317;SDS011;7759;52.528;13.346;2023-05-10T10:48:38;3.67;;;1.85;;
15317;SDS011;7759;52.528;13.346;2023-05-10T10:51:03;4.00;;;1.70;;
15317;SDS011;7759;52.528;13.346;2023-05-10T10:53:30;2.15;;;1.95;;
15317;SDS011;7759;52.528;13.346;2023-05-10T10:56:09;2.10;;;1.98;;
15317;SDS011;7759;52.528;13.346;2023-05-10T10:58:36;1.65;;;1.55;;
15317;SDS011;7759;52.528;13.346;2023-05-10T11:01:12;6.47;;;2.08;;
15317;SDS011;7759;52.528;13.346;2023-05-10T11:06:29;4.07;;;2.33;;
15317;SDS011;7759;52.528;13.346;2023-05-10T11:08:59;4.93;;;2.00;;
15317;SDS011;7759;52.528;13.346;2023-05-10T11:11:25;3.67;;;1.92;;
15317;SDS011;7759;52.528;13.346;2023-05-10T11:13:51;4.15;;;2.13;;
15317;SDS011;7759;52.528;13.346;2023-05-10T11:16:18;2.25;;;1.80;;
15317;SDS011;7759;52.528;13.346;2023-05-10T11:19:04;1.85;;;1.73;;
15317;SDS011;7759;52.528;13.346;2023-05-10T11:21:30;3.00;;;2.17;;
15317;SDS011;7759;52.528;13.346;2023-05-10T11:23:56;2.33;;;2.10;;
15317;SDS011;7759;52.528;13.346;2023-05-10T11:26:24;3.33;;;2.38;;
15317;SDS011;7759;52.528;13.346;2023-05-10T11:28:51;6.43;;;2.08;;
15317;SDS011;7759;52.528;13.346;2023-05-10T11:31:18;2.67;;;1.92;;
15317;SDS011;7759;52.528;13.346;2023-05-10T11:33:45;2.10;;;1.48;;
15317;SDS011;7759;52.528;13.346;2023-05-10T11:36:14;4.13;;;2.97;;
15317;SDS011;7759;52.528;13.346;2023-05-10T11:38:57;4.32;;;1.90;;
15317;SDS011;7759;52.528;13.346;2023-05-10T11:41:23;2.80;;;2.08;;
15317;SDS011;7759;52.528;13.346;2023-05-10T11:43:50;2.08;;;1.83;;
15317;SDS011;7759;52.528;13.346;2023-05-10T11:46:19;2.20;;;1.98;;
15317;SDS011;7759;52.528;13.346;2023-05-10T11:48:46;3.45;;;1.60;;
15317;SDS011;7759;52.528;13.346;2023-05-10T11:51:12;2.00;;;1.83;;
15317;SDS011;7759;52.528;13.346;2023-05-10T11:53:38;5.75;;;2.10;;
15317;SDS011;7759;52.528;13.346;2023-05-10T11:56:10;1.73;;;1.63;;
15317;SDS011;7759;52.528;13.346;2023-05-10T11:58:38;2.70;;;2.10;;
15317;SDS011;7759;52.528;13.346;2023-05-10T12:01:05;3.08;;;1.80;;
15317;SDS011;7759;52.528;13.346;2023-05-10T12:03:31;3.33;;;1.35;;
15317;SDS011;7759;52.528;13.346;2023-05-10T12:05:57;2.17;;;1.85;;
15317;SDS011;7759;52.528;13.346;2023-05-10T12:08:24;2.50;;;1.83;;
15317;SDS011;7759;52.528;13.346;2023-05-10T12:10:51;5.18;;;1.75;;
15317;SDS011;7759;52.528;13.346;2023-05-10T12:13:17;3.63;;;2.00;;
15317;SDS011;7759;52.528;13.346;2023-05-10T12:15:45;4.55;;;1.80;;
15317;SDS011;7759;52.528;13.346;2023-05-10T12:18:11;2.65;;;1.77;;
15317;SDS011;7759;52.528;13.346;2023-05-10T12:20:37;4.50;;;1.70;;
15317;SDS011;7759;52.528;13.346;2023-05-10T12:23:04;2.50;;;1.35;;
15317;SDS011;7759;52.528;13.346;2023-05-10T12:25:31;2.35;;;2.08;;
15317;SDS011;7759;52.528;13.346;2023-05-10T12:27:58;2.85;;;1.98;;
15317;SDS011;7759;52.528;13.346;2023-05-10T12:30:29;2.17;;;1.75;;
15317;SDS011;7759;52.528;13.346;2023-05-10T12:33:11;3.35;;;1.63;;
15317;SDS011;7759;52.528;13.346;2023-05-10T12:35:48;2.00;;;1.60;;
15317;SDS011;7759;52.528;13.346;2023-05-10T12:38:34;2.10;;;1.90;;
15317;SDS011;7759;52.528;13.346;2023-05-10T12:41:04;2.50;;;1.80;;
15317;SDS011;7759;52.528;13.346;2023-05-10T12:43:31;1.58;;;1.48;;
15317;SDS011;7759;52.528;13.346;2023-05-10T12:45:58;3.08;;;1.77;;
15317;SDS011;7759;52.528;13.346;2023-05-10T12:48:24;3.25;;;1.92;;
15317;SDS011;7759;52.528;13.346;2023-05-10T12:50:50;2.28;;;2.08;;
15317;SDS011;7759;52.528;13.346;2023-05-10T12:53:16;2.45;;;1.67;;
15317;SDS011;7759;52.528;13.346;2023-05-10T12:55:44;2.08;;;1.88;;
15317;SDS011;7759;52.528;13.346;2023-05-10T12:58:10;3.53;;;1.98;;
15317;SDS011;7759;52.528;13.346;2023-05-10T13:00:36;2.30;;;1.92;;
15317;SDS011;7759;52.528;13.346;2023-05-10T13:03:03;1.85;;;1.67;;
15317;SDS011;7759;52.528;13.346;2023-05-10T13:05:31;2.22;;;1.67;;
15317;SDS011;7759;52.528;13.346;2023-05-10T13:07:57;5.50;;;2.30;;
15317;SDS011;7759;52.528;13.346;2023-05-10T13:10:22;4.18;;;1.90;;
15317;SDS011;7759;52.528;13.346;2023-05-10T13:12:49;3.38;;;2.10;;
15317;SDS011;7759;52.528;13.346;2023-05-10T13:15:15;2.22;;;1.80;;
15317;SDS011;7759;52.528;13.346;2023-05-10T13:17:42;2.10;;;1.85;;
15317;SDS011;7759;52.528;13.346;2023-05-10T13:20:08;6.38;;;2.00;;
15317;SDS011;7759;52.528;13.346;2023-05-10T13:22:35;2.83;;;1.80;;
15317;SDS011;7759;52.528;13.346;2023-05-10T13:25:01;4.05;;;1.95;;
15317;SDS011;7759;52.528;13.346;2023-05-10T13:27:27;3.13;;;1.95;;
15317;SDS011;7759;52.528;13.346;2023-05-10T13:29:54;3.97;;;2.00;;
15317;SDS011;7759;52.528;13.346;2023-05-10T13:32:20;3.95;;;2.30;;
15317;SDS011;7759;52.528;13.346;2023-05-10T13:34:46;3.22;;;2.22;;
15317;SDS011;7759;52.528;13.346;2023-05-10T13:37:14;2.88;;;2.03;;
15317;SDS011;7759;52.528;13.346;2023-05-10T13:39:40;2.60;;;1.98;;
15317;SDS011;7759;52.528;13.346;2023-05-10T13:42:07;2.67;;;2.13;;
15317;SDS011;7759;52.528;13.346;2023-05-10T13:44:34;5.38;;;2.00;;
15317;SDS011;7759;52.528;13.346;2023-05-10T13:47:02;3.47;;;1.92;;
15317;SDS011;7759;52.528;13.346;2023-05-10T13:49:28;2.67;;;2.40;;
15317;SDS011;7759;52.528;13.346;2023-05-10T13:51:54;2.42;;;1.90;;
15317;SDS011;7759;52.528;13.346;2023-05-10T13:54:20;2.17;;;1.90;;
15317;SDS011;7759;52.528;13.346;2023-05-10T13:56:47;2.30;;;2.10;;
15317;SDS011;7759;52.528;13.346;2023-05-10T13:59:13;5.50;;;1.90;;
15317;SDS011;7759;52.528;13.346;2023-05-10T14:01:40;2.80;;;1.90;;
15317;SDS011;7759;52.528;13.346;2023-05-10T14:04:06;2.13;;;1.92;;
15317;SDS011;7759;52.528;13.346;2023-05-10T14:06:35;4.38;;;2.03;;
15317;SDS011;7759;52.528;13.346;2023-05-10T14:09:01;2.90;;;2.47;;
15317;SDS011;7759;52.528;13.346;2023-05-10T14:11:30;4.28;;;1.92;;
15317;SDS011;7759;52.528;13.346;2023-05-10T14:13:56;3.95;;;1.95;;
15317;SDS011;7759;52.528;13.346;2023-05-10T14:16:22;2.40;;;1.80;;
15317;SDS011;7759;52.528;13.346;2023-05-10T14:18:48;3.83;;;1.98;;
15317;SDS011;7759;52.528;13.346;2023-05-10T14:21:14;1.77;;;1.55;;
15317;SDS011;7759;52.528;13.346;2023-05-10T14:23:42;2.08;;;1.80;;
15317;SDS011;7759;52.528;13.346;2023-05-10T14:26:07;3.40;;;1.83;;
15317;SDS011;7759;52.528;13.346;2023-05-10T14:28:33;4.82;;;2.40;;
15317;SDS011;7759;52.528;13.346;2023-05-10T14:30:59;2.53;;;2.22;;
15317;SDS011;7759;52.528;13.346;2023-05-10T14:33:25;2.38;;;1.83;;
15317;SDS011;7759;52.528;13.346;2023-05-10T14:35:53;2.92;;;1.98;;
15317;SDS011;7759;52.528;13.346;2023-05-10T14:38:21;1.98;;;1.75;;
15317;SDS011;7759;52.528;13.346;2023-05-10T14:40:47;5.60;;;4.97;;
15317;SDS011;7759;52.528;13.346;2023-05-10T14:43:13;2.17;;;1.80;;
15317;SDS011;7759;52.528;13.346;2023-05-10T14:45:39;2.15;;;1.90;;
15317;SDS011;7759;52.528;13.346;2023-05-10T14:48:08;2.28;;;1.90;;
15317;SDS011;7759;52.528;13.346;2023-05-10T14:50:37;1.92;;;1.70;;
15317;SDS011;7759;52.528;13.346;2023-05-10T14:53:03;5.22;;;2.10;;
15317;SDS011;7759;52.528;13.346;2023-05-10T14:55:30;2.30;;;2.08;;
15317;SDS011;7759;52.528;13.346;2023-05-10T14:57:56;4.63;;;2.03;;
15317;SDS011;7759;52.528;13.346;2023-05-10T15:00:23;2.55;;;2.10;;
15317;SDS011;7759;52.528;13.346;2023-05-10T15:02:49;2.38;;;1.92;;
15317;SDS011;7759;52.528;13.346;2023-05-10T15:05:16;2.17;;;1.90;;
15317;SDS011;7759;52.528;13.346;2023-05-10T15:07:42;2.33;;;1.83;;
15317;SDS011;7759;52.528;13.346;2023-05-10T15:10:08;2.25;;;2.05;;